Time;durP1;ratioP1;P1;durP2;ratioP2;P2;SDS_P1;SDS_P2;PMS_P1;PMS_P2;Temp;Humidity;BMP_temperature;BMP_pressure;BME280_temperature;BME280_humidity;BME280_pressure;Samples;Min_cycle;Max_cycle;Signal;HPM_P1;HPM_P2
2023/05/09 00:01:49;;;;;;;5.23;4.50;;;12.20;80.20;;;;;;5074296;28;20918;-66
2023/05/09 00:04:16;;;;;;;8.00;4.20;;;12.10;81.30;;;;;;5074885;28;20465;-67
2023/05/09 00:06:43;;;;;;;6.43;4.20;;;12.10;83.70;;;;;;5075567;28;20464;-67
2023/05/09 00:09:10;;;;;;;5.43;4.63;;;12.00;85.80;;;;;;5075079;28;20460;-66
2023/05/09 00:11:37;;;;;;;4.67;4.27;;;12.00;87.40;;;;;;5075012;28;20561;-67
2023/05/09 00:14:03;;;;;;;6.50;5.07;;;11.80;90.10;;;;;;5074886;28;20482;-67
2023/05/09 00:16:32;;;;;;;5.60;4.80;;;11.80;91.20;;;;;;5074992;28;20462;-66
2023/05/09 00:18:59;;;;;;;4.40;4.00;;;11.60;92.70;;;;;;5075390;28;20556;-66
2023/05/09 00:21:27;;;;;;;5.17;4.67;;;11.60;93.60;;;;;;5074878;28;20469;-66
2023/05/09 00:23:53;;;;;;;5.67;4.83;;;11.70;94.20;;;;;;5074541;28;20610;-68
2023/05/09 00:26:21;;;;;;;6.90;5.27;;;11.80;94.50;;;;;;5074607;28;20490;-67
2023/05/09 00:28:47;;;;;;;5.40;4.90;;;11.60;95.30;;;;;;5074389;28;20528;-68
2023/05/09 00:31:14;;;;;;;5.50;4.90;;;11.60;96.50;;;;;;5074298;28;20953;-67
2023/05/09 00:33:43;;;;;;;4.70;4.30;;;11.40;98.00;;;;;;5074130;28;20500;-67
2023/05/09 00:36:09;;;;;;;5.33;4.83;;;11.30;99.20;;;;;;5074223;28;20793;-68
2023/05/09 00:38:37;;;;;;;6.30;4.37;;;11.20;99.90;;;;;;5073848;28;20984;-67
2023/05/09 00:41:04;;;;;;;5.10;4.43;;;11.10;99.90;;;;;;5076324;28;20918;-68
2023/05/09 00:43:30;;;;;;;7.63;4.10;;;11.10;99.90;;;;;;5078551;28;20457;-68
2023/05/09 00:45:58;;;;;;;6.37;4.20;;;11.20;99.90;;;;;;5077797;28;20549;-67
2023/05/09 00:48:25;;;;;;;5.47;4.80;;;11.10;99.90;;;;;;5077693;28;20464;-68
2023/05/09 00:50:53;;;;;;;5.23;4.73;;;11.20;99.90;;;;;;5077859;28;20523;-68
2023/05/09 00:53:20;;;;;;;5.13;4.63;;;11.20;99.90;;;;;;5077874;28;20488;-68
2023/05/09 00:55:47;;;;;;;5.10;4.20;;;11.30;99.90;;;;;;5077504;28;20464;-68
2023/05/09 00:58:14;;;;;;;6.40;4.60;;;11.30;99.90;;;;;;5077821;28;20464;-68
2023/05/09 01:00:41;;;;;;;4.30;3.90;;;11.40;99.90;;;;;;5077231;28;20494;-67
2023/05/09 01:03:08;;;;;;;4.57;4.17;;;11.40;99.90;;;;;;5077618;28;20450;-67
2023/05/09 01:05:42;;;;;;;5.50;4.53;;;11.40;99.90;;;;;;5077405;28;20454;-67
2023/05/09 01:08:21;;;;;;;4.63;4.20;;;11.30;99.90;;;;;;5077638;28;20453;-67
2023/05/09 01:10:54;;;;;;;5.57;4.20;;;11.30;99.90;;;;;;5077633;28;20782;-66
2023/05/09 01:13:27;;;;;;;4.90;4.40;;;11.30;99.90;;;;;;5077438;28;20467;-67
2023/05/09 01:16:00;;;;;;;4.97;4.53;;;11.20;99.90;;;;;;5077408;28;20446;-66
2023/05/09 01:18:33;;;;;;;7.43;4.20;;;11.10;99.90;;;;;;5077146;28;20454;-66
2023/05/09 01:21:06;;;;;;;4.60;4.17;;;11.10;99.90;;;;;;5077402;28;20443;-67
2023/05/09 01:24:05;;;;;;;10.60;5.10;;;11.10;99.90;;;;;;5077089;28;20453;-67
2023/05/09 01:26:44;;;;;;;4.30;3.90;;;11.10;99.90;;;;;;5044112;28;20449;-68
2023/05/09 01:29:34;;;;;;;4.47;4.03;;;11.10;99.90;;;;;;5077347;28;20442;-68
2023/05/09 01:32:04;;;;;;;4.40;3.93;;;11.10;99.90;;;;;;5077365;28;20449;-68
2023/05/09 01:34:33;;;;;;;4.30;3.90;;;11.10;99.90;;;;;;5076769;28;20466;-68
2023/05/09 01:37:01;;;;;;;4.20;3.80;;;11.00;99.90;;;;;;5077438;28;20468;-68
2023/05/09 01:39:30;;;;;;;5.30;4.20;;;11.00;99.90;;;;;;5076855;28;20478;-68
2023/05/09 01:42:02;;;;;;;4.50;4.10;;;11.00;99.90;;;;;;5076981;28;20809;-67
2023/05/09 01:44:35;;;;;;;4.87;3.70;;;11.10;99.90;;;;;;5076834;28;20440;-67
2023/05/09 01:47:02;;;;;;;5.07;4.20;;;11.10;99.90;;;;;;5076818;28;20456;-68
2023/05/09 01:49:32;;;;;;;4.03;3.63;;;11.10;99.90;;;;;;5077242;28;20490;-67
2023/05/09 01:52:01;;;;;;;4.17;3.77;;;11.10;99.90;;;;;;5076580;28;20929;-66
2023/05/09 01:54:29;;;;;;;6.80;4.20;;;11.00;99.90;;;;;;5077121;28;20576;-67
2023/05/09 01:56:57;;;;;;;5.10;4.30;;;11.00;99.90;;;;;;5076438;28;20515;-67
2023/05/09 01:59:26;;;;;;;5.13;3.80;;;11.10;99.90;;;;;;5076764;28;20545;-68
2023/05/09 02:01:56;;;;;;;4.63;3.60;;;11.00;99.90;;;;;;5077216;28;20454;-66
2023/05/09 02:04:23;;;;;;;3.87;3.57;;;10.90;99.90;;;;;;5076286;28;20450;-67
2023/05/09 02:06:51;;;;;;;5.93;3.63;;;10.70;99.90;;;;;;5076223;28;20549;-67
2023/05/09 02:09:19;;;;;;;4.90;3.53;;;10.80;99.90;;;;;;5076855;28;20783;-67
2023/05/09 02:11:46;;;;;;;3.87;3.47;;;10.80;99.90;;;;;;5076831;28;20464;-68
2023/05/09 02:14:13;;;;;;;3.60;3.30;;;10.80;99.90;;;;;;5077054;28;20488;-68
2023/05/09 02:16:40;;;;;;;4.17;3.30;;;10.80;99.90;;;;;;5077464;28;20871;-67
2023/05/09 02:19:08;;;;;;;4.20;3.30;;;10.80;99.90;;;;;;5077285;28;20545;-67
2023/05/09 02:21:36;;;;;;;4.60;3.60;;;10.90;99.90;;;;;;5077331;28;20545;-67
2023/05/09 02:24:03;;;;;;;3.80;3.30;;;10.80;99.90;;;;;;5077212;28;20541;-67
2023/05/09 02:26:30;;;;;;;4.67;3.77;;;10.80;99.90;;;;;;5077469;28;20458;-67
2023/05/09 02:28:58;;;;;;;3.57;3.27;;;10.80;99.90;;;;;;5077092;28;20472;-66
2023/05/09 02:31:27;;;;;;;5.40;3.23;;;10.80;99.90;;;;;;5077149;28;20868;-68
2023/05/09 02:33:55;;;;;;;3.70;2.90;;;10.80;99.90;;;;;;5075910;28;20521;-67
2023/05/09 02:36:24;;;;;;;3.63;3.20;;;10.80;99.90;;;;;;5076241;28;20919;-67
2023/05/09 02:38:51;;;;;;;3.67;2.97;;;10.80;99.90;;;;;;5075518;28;20486;-67
2023/05/09 02:41:18;;;;;;;3.90;3.20;;;10.80;99.90;;;;;;5075803;28;20541;-68
2023/05/09 02:43:45;;;;;;;3.23;2.87;;;10.70;99.90;;;;;;5075575;28;20496;-68
2023/05/09 02:46:12;;;;;;;3.23;2.93;;;10.70;99.90;;;;;;5076146;28;20795;-68
2023/05/09 02:48:39;;;;;;;3.37;2.90;;;10.70;99.40;;;;;;5075356;28;20519;-67
2023/05/09 02:51:06;;;;;;;3.80;3.30;;;10.70;99.50;;;;;;5075666;28;20454;-67
2023/05/09 02:53:34;;;;;;;3.13;2.90;;;10.80;99.50;;;;;;5075516;28;20454;-67
2023/05/09 02:56:01;;;;;;;3.93;3.30;;;10.90;99.10;;;;;;5075489;28;20464;-67
2023/05/09 02:58:27;;;;;;;3.70;3.10;;;10.80;98.80;;;;;;5075582;28;20484;-67
2023/05/09 03:00:54;;;;;;;4.10;2.90;;;10.70;99.10;;;;;;5075119;28;20454;-67
2023/05/09 03:03:22;;;;;;;2.97;2.67;;;10.80;98.90;;;;;;5074301;28;20454;-66
2023/05/09 03:05:48;;;;;;;6.50;3.20;;;10.90;98.60;;;;;;5075084;28;20498;-67
2023/05/09 03:08:15;;;;;;;3.30;3.00;;;10.90;98.50;;;;;;5075062;28;20454;-67
2023/05/09 03:10:44;;;;;;;9.87;3.00;;;10.90;98.30;;;;;;5075340;28;20462;-66
2023/05/09 03:13:10;;;;;;;4.23;2.93;;;10.90;98.00;;;;;;5075281;28;20544;-67
2023/05/09 03:15:37;;;;;;;2.87;2.67;;;10.90;98.00;;;;;;5074632;28;20482;-67
2023/05/09 03:18:04;;;;;;;6.40;4.63;;;10.90;98.10;;;;;;5075093;28;20592;-67
2023/05/09 03:20:31;;;;;;;3.73;3.33;;;11.00;98.00;;;;;;5075104;28;20505;-67
2023/05/09 03:22:58;;;;;;;3.60;3.30;;;10.80;97.90;;;;;;5074921;28;20537;-67
2023/05/09 03:25:26;;;;;;;4.67;3.23;;;10.80;98.30;;;;;;5074914;28;20850;-67
2023/05/09 03:27:54;;;;;;;3.17;2.87;;;10.80;98.30;;;;;;5075255;28;20458;-67
2023/05/09 03:30:21;;;;;;;3.90;3.03;;;10.80;98.30;;;;;;5074798;28;20464;-67
2023/05/09 03:32:47;;;;;;;3.53;2.83;;;10.70;98.50;;;;;;5074769;28;20468;-67
2023/05/09 03:35:14;;;;;;;4.13;3.73;;;10.70;98.60;;;;;;5074653;28;20480;-67
2023/05/09 03:37:41;;;;;;;3.87;3.47;;;10.60;98.60;;;;;;5074799;28;20464;-67
2023/05/09 03:40:09;;;;;;;3.93;3.57;;;10.70;98.80;;;;;;5074806;28;20901;-67
2023/05/09 03:42:36;;;;;;;3.57;3.20;;;10.60;98.90;;;;;;5074732;28;20911;-67
2023/05/09 03:45:04;;;;;;;4.97;3.33;;;10.40;99.10;;;;;;5074395;28;20922;-67
2023/05/09 03:47:31;;;;;;;3.60;3.30;;;10.30;99.40;;;;;;5074470;28;20464;-67
2023/05/09 03:49:58;;;;;;;3.93;3.23;;;10.30;99.90;;;;;;5074797;28;20464;-67
2023/05/09 03:52:25;;;;;;;3.60;3.30;;;10.30;99.90;;;;;;5074471;28;20462;-67
2023/05/09 03:54:52;;;;;;;5.53;3.27;;;10.40;99.90;;;;;;5074574;28;20577;-67
2023/05/09 03:57:19;;;;;;;3.50;3.10;;;10.50;99.90;;;;;;5074381;28;20494;-67
2023/05/09 03:59:45;;;;;;;4.70;3.57;;;10.60;99.90;;;;;;5074706;28;20454;-67
2023/05/09 04:02:14;;;;;;;5.33;2.87;;;10.60;99.80;;;;;;5074253;28;20458;-67
2023/05/09 04:04:41;;;;;;;3.70;3.40;;;10.70;99.90;;;;;;5074690;28;20454;-67
2023/05/09 04:07:08;;;;;;;3.47;3.17;;;10.80;99.90;;;;;;5074366;28;20545;-67
2023/05/09 04:09:34;;;;;;;4.30;3.83;;;10.80;99.90;;;;;;5074399;28;20464;-67
2023/05/09 04:12:01;;;;;;;4.97;3.50;;;10.80;99.90;;;;;;5074594;28;20540;-68
2023/05/09 04:14:28;;;;;;;3.60;3.30;;;10.80;99.90;;;;;;5076313;28;20808;-67
2023/05/09 04:16:55;;;;;;;5.07;3.70;;;10.90;99.90;;;;;;5078830;28;20557;-67
2023/05/09 04:19:23;;;;;;;5.53;4.30;;;10.90;99.90;;;;;;5078557;28;20820;-67
2023/05/09 04:21:50;;;;;;;4.17;3.77;;;10.80;99.90;;;;;;5078660;28;20464;-68
2023/05/09 04:24:17;;;;;;;3.87;3.57;;;10.70;99.90;;;;;;5078732;28;20544;-67
2023/05/09 04:26:45;;;;;;;4.50;3.80;;;10.60;99.90;;;;;;5078622;28;20793;-68
2023/05/09 04:29:11;;;;;;;5.37;4.60;;;10.70;99.90;;;;;;5078360;28;20466;-67
2023/05/09 04:31:38;;;;;;;4.73;4.20;;;10.70;99.90;;;;;;5078230;28;20458;-67
2023/05/09 04:34:05;;;;;;;4.80;4.10;;;10.60;99.90;;;;;;5077972;28;20545;-68
2023/05/09 04:36:33;;;;;;;4.53;3.90;;;10.60;99.90;;;;;;5078573;28;20460;-68
2023/05/09 04:39:00;;;;;;;4.27;3.87;;;10.60;99.90;;;;;;5078147;28;20485;-68
2023/05/09 04:41:27;;;;;;;4.53;3.93;;;10.60;99.90;;;;;;5078021;28;20458;-67
2023/05/09 04:43:54;;;;;;;5.10;4.23;;;10.50;99.90;;;;;;5077918;28;20467;-67
2023/05/09 04:46:21;;;;;;;5.70;4.50;;;10.60;99.90;;;;;;5077828;28;20592;-67
2023/05/09 04:48:48;;;;;;;4.83;3.90;;;10.70;99.90;;;;;;5078142;28;20552;-67
2023/05/09 04:51:15;;;;;;;5.87;4.30;;;10.70;99.90;;;;;;5077538;28;20478;-67
2023/05/09 04:53:43;;;;;;;5.37;4.53;;;10.70;99.90;;;;;;5078167;28;20464;-67
2023/05/09 04:56:10;;;;;;;5.03;4.53;;;10.70;99.90;;;;;;5077649;28;21010;-68
2023/05/09 04:58:38;;;;;;;9.53;4.60;;;10.70;99.90;;;;;;5077959;28;20557;-67
2023/05/09 05:01:05;;;;;;;5.40;4.40;;;10.70;99.90;;;;;;5077592;28;20935;-68
2023/05/09 05:03:32;;;;;;;7.10;4.23;;;10.70;99.90;;;;;;5077800;28;20477;-68
2023/05/09 05:05:59;;;;;;;4.60;4.10;;;10.70;99.90;;;;;;5078054;28;20759;-68
2023/05/09 05:08:25;;;;;;;5.00;4.20;;;10.70;99.90;;;;;;5077819;28;20501;-68
2023/05/09 05:10:54;;;;;;;5.57;4.13;;;10.80;99.90;;;;;;5077837;28;20879;-68
2023/05/09 05:13:21;;;;;;;5.57;4.40;;;10.90;99.90;;;;;;5077518;28;20549;-67
2023/05/09 05:15:48;;;;;;;6.80;4.70;;;10.90;99.90;;;;;;5077941;28;20497;-68
2023/05/09 05:18:15;;;;;;;7.30;4.77;;;10.80;99.90;;;;;;5077399;28;20460;-68
2023/05/09 05:20:42;;;;;;;5.60;4.90;;;10.80;99.90;;;;;;5077569;28;20454;-67
2023/05/09 05:23:09;;;;;;;6.70;4.33;;;10.80;99.90;;;;;;5077684;28;20548;-68
2023/05/09 05:25:36;;;;;;;4.50;3.73;;;10.80;99.90;;;;;;5076745;28;20476;-68
2023/05/09 05:28:05;;;;;;;9.23;4.83;;;10.90;99.90;;;;;;5077660;28;20549;-67
2023/05/09 05:30:32;;;;;;;5.50;4.40;;;10.90;99.90;;;;;;5077491;28;20468;-68
2023/05/09 05:32:59;;;;;;;4.73;4.23;;;10.90;99.90;;;;;;5077225;28;20963;-67
2023/05/09 05:35:27;;;;;;;5.57;4.40;;;11.00;99.90;;;;;;5077005;28;20474;-67
2023/05/09 05:37:53;;;;;;;4.47;3.80;;;11.10;99.90;;;;;;5077038;28;20562;-67
2023/05/09 05:40:20;;;;;;;4.40;4.00;;;11.20;99.90;;;;;;5077383;28;20439;-67
2023/05/09 05:42:47;;;;;;;5.20;3.67;;;11.20;99.90;;;;;;5077048;28;20466;-67
2023/05/09 05:45:16;;;;;;;4.07;3.77;;;11.20;99.90;;;;;;5077250;28;20450;-68
2023/05/09 05:47:42;;;;;;;5.07;3.80;;;11.20;99.90;;;;;;5077010;28;20457;-67
2023/05/09 05:50:10;;;;;;;4.87;3.70;;;11.30;99.90;;;;;;5076679;28;20493;-69
2023/05/09 05:52:37;;;;;;;9.23;3.73;;;11.20;99.90;;;;;;5076802;28;20527;-67
2023/05/09 05:55:05;;;;;;;6.87;5.10;;;11.20;99.90;;;;;;5076966;28;20482;-68
2023/05/09 05:57:33;;;;;;;5.10;3.67;;;11.30;99.90;;;;;;5076658;28;20793;-67
2023/05/09 06:00:00;;;;;;;4.37;3.07;;;11.30;99.90;;;;;;5076914;28;20458;-68
2023/05/09 06:02:28;;;;;;;5.83;3.70;;;11.40;99.90;;;;;;5076973;28;20847;-68
2023/05/09 06:04:55;;;;;;;4.30;3.10;;;11.40;99.90;;;;;;5076511;28;20451;-68
2023/05/09 06:07:22;;;;;;;11.53;4.20;;;11.50;99.90;;;;;;5076415;28;20454;-68
2023/05/09 06:09:49;;;;;;;5.10;3.50;;;11.50;99.90;;;;;;5076605;28;20780;-67
2023/05/09 06:12:16;;;;;;;4.50;3.57;;;11.50;99.60;;;;;;5076497;28;20541;-68
2023/05/09 06:14:43;;;;;;;5.53;3.50;;;11.50;99.30;;;;;;5076452;28;20517;-68
2023/05/09 06:17:10;;;;;;;3.93;3.57;;;11.60;99.40;;;;;;5076433;28;20468;-68
2023/05/09 06:19:38;;;;;;;3.93;3.60;;;11.70;98.70;;;;;;5076401;28;20620;-68
2023/05/09 06:22:05;;;;;;;7.80;3.57;;;11.80;98.10;;;;;;5076231;28;20459;-68
2023/05/09 06:24:31;;;;;;;5.07;3.70;;;11.90;98.50;;;;;;5076254;28;20482;-68
2023/05/09 06:26:58;;;;;;;4.27;3.87;;;12.00;98.30;;;;;;5076384;28;20911;-67
2023/05/09 06:29:25;;;;;;;3.67;3.27;;;12.00;98.40;;;;;;5076351;28;20552;-68
2023/05/09 06:31:52;;;;;;;3.93;3.37;;;12.10;98.70;;;;;;5076189;28;20500;-70
2023/05/09 06:34:19;;;;;;;4.60;3.23;;;12.10;98.60;;;;;;5075639;28;20540;-69
2023/05/09 06:36:47;;;;;;;9.70;3.70;;;12.20;98.10;;;;;;5075786;28;20997;-67
2023/05/09 06:39:14;;;;;;;5.23;3.77;;;12.30;97.00;;;;;;5075579;28;20573;-68
2023/05/09 06:41:41;;;;;;;4.53;3.93;;;12.30;97.10;;;;;;5075836;28;20469;-67
2023/05/09 06:44:08;;;;;;;4.03;3.40;;;12.40;97.30;;;;;;5075618;28;20454;-68
2023/05/09 06:46:34;;;;;;;4.27;3.27;;;12.40;96.50;;;;;;5075397;28;20450;-69
2023/05/09 06:49:01;;;;;;;4.57;3.43;;;12.40;96.60;;;;;;5075707;28;20554;-67
2023/05/09 06:51:28;;;;;;;3.97;3.57;;;12.50;97.10;;;;;;5075773;28;20560;-67
2023/05/09 06:53:56;;;;;;;5.50;3.33;;;12.50;96.90;;;;;;5075624;28;20458;-68
2023/05/09 06:56:24;;;;;;;4.77;3.47;;;12.60;96.40;;;;;;5075410;28;20492;-68
2023/05/09 06:58:51;;;;;;;3.50;3.20;;;12.70;95.40;;;;;;5075490;28;20522;-67
2023/05/09 07:01:18;;;;;;;4.07;3.73;;;12.70;95.10;;;;;;5075445;28;20792;-67
2023/05/09 07:03:46;;;;;;;5.60;3.50;;;12.70;94.90;;;;;;5075168;28;20457;-67
2023/05/09 07:06:13;;;;;;;5.53;4.13;;;12.70;94.80;;;;;;5075151;28;20454;-67
2023/05/09 07:08:40;;;;;;;6.20;4.70;;;12.80;94.40;;;;;;5075447;28;20459;-67
2023/05/09 07:11:08;;;;;;;6.17;3.80;;;12.80;94.30;;;;;;5076011;28;20541;-68
2023/05/09 07:13:35;;;;;;;6.77;4.10;;;12.90;94.50;;;;;;5076011;28;20899;-68
2023/05/09 07:16:02;;;;;;;4.50;3.70;;;12.90;95.00;;;;;;5075492;28;20478;-68
2023/05/09 07:18:29;;;;;;;4.67;3.40;;;13.00;93.90;;;;;;5075676;28;20458;-68
2023/05/09 07:20:56;;;;;;;5.27;4.10;;;13.00;94.20;;;;;;5075478;28;20511;-68
2023/05/09 07:23:24;;;;;;;6.20;4.00;;;13.00;93.50;;;;;;5075566;28;20784;-68
2023/05/09 07:25:57;;;;;;;4.93;3.83;;;13.10;92.10;;;;;;5075155;28;20588;-68
2023/05/09 07:28:25;;;;;;;5.07;3.70;;;13.10;91.50;;;;;;5075099;28;20442;-68
2023/05/09 07:30:52;;;;;;;4.30;3.90;;;13.10;90.50;;;;;;5075113;28;20465;-68
2023/05/09 07:33:22;;;;;;;4.83;3.83;;;13.10;90.40;;;;;;5075139;28;20465;-68
2023/05/09 07:35:49;;;;;;;4.33;3.80;;;13.20;88.60;;;;;;5074791;28;20478;-68
2023/05/09 07:38:16;;;;;;;4.50;4.10;;;13.20;88.00;;;;;;5074699;28;20486;-68
2023/05/09 07:40:43;;;;;;;3.97;3.60;;;13.20;86.20;;;;;;5074531;28;20541;-68
2023/05/09 07:43:10;;;;;;;7.83;4.40;;;13.20;85.50;;;;;;5074950;28;20526;-68
2023/05/09 07:45:38;;;;;;;4.10;3.40;;;13.30;85.30;;;;;;5074986;28;20455;-68
2023/05/09 07:48:05;;;;;;;3.70;3.23;;;13.40;85.60;;;;;;5074810;28;20458;-68
2023/05/09 07:50:33;;;;;;;5.40;3.27;;;13.50;85.30;;;;;;5074220;28;20464;-69
2023/05/09 07:52:59;;;;;;;4.50;3.73;;;13.50;84.50;;;;;;5074421;28;20462;-68
2023/05/09 07:55:26;;;;;;;5.97;3.40;;;13.60;84.40;;;;;;5074775;28;20474;-68
2023/05/09 07:57:53;;;;;;;6.20;3.37;;;13.70;82.90;;;;;;5074553;28;20462;-68
2023/05/09 08:00:22;;;;;;;4.40;3.47;;;13.90;80.00;;;;;;5074741;28;20549;-68
2023/05/09 08:02:50;;;;;;;3.40;3.10;;;14.00;79.10;;;;;;5074377;28;20515;-66
2023/05/09 08:05:17;;;;;;;3.60;3.30;;;14.00;77.10;;;;;;5074231;28;20938;-68
2023/05/09 08:07:44;;;;;;;4.13;3.47;;;14.10;78.40;;;;;;5074326;28;20450;-68
2023/05/09 08:10:11;;;;;;;5.70;3.70;;;14.10;75.50;;;;;;5074706;28;20529;-68
2023/05/09 08:12:39;;;;;;;3.90;3.20;;;14.10;72.20;;;;;;5075221;28;20999;-68
2023/05/09 08:15:07;;;;;;;7.00;3.33;;;14.20;72.90;;;;;;5074303;28;20540;-68
2023/05/09 08:17:34;;;;;;;4.00;3.60;;;14.30;71.40;;;;;;5074474;28;20458;-68
2023/05/09 08:20:04;;;;;;;3.77;3.33;;;14.30;70.60;;;;;;5074085;28;20994;-69
2023/05/09 08:22:31;;;;;;;3.37;3.07;;;14.30;69.80;;;;;;5074422;28;20536;-68
2023/05/09 08:24:58;;;;;;;4.40;3.50;;;14.40;69.30;;;;;;5074429;28;20523;-67
2023/05/09 08:27:25;;;;;;;6.37;3.60;;;14.40;68.10;;;;;;5074625;28;20464;-67
2023/05/09 08:29:51;;;;;;;3.27;2.97;;;14.50;65.80;;;;;;5074432;28;20523;-67
2023/05/09 08:32:19;;;;;;;6.23;3.53;;;14.50;64.90;;;;;;5074748;28;20779;-69
2023/05/09 08:34:46;;;;;;;3.57;2.93;;;14.50;63.70;;;;;;5074472;28;20462;-67
2023/05/09 08:37:14;;;;;;;4.47;3.40;;;14.70;62.30;;;;;;5074316;28;20486;-68
2023/05/09 08:39:41;;;;;;;3.53;3.23;;;14.70;62.80;;;;;;5074236;28;20521;-68
2023/05/09 08:42:10;;;;;;;4.07;3.70;;;14.90;61.20;;;;;;5073571;28;20549;-68
2023/05/09 08:44:37;;;;;;;5.50;3.33;;;14.90;59.70;;;;;;5073904;28;20537;-67
2023/05/09 08:47:05;;;;;;;4.37;3.13;;;15.00;59.20;;;;;;5073657;28;20541;-68
2023/05/09 08:49:32;;;;;;;3.90;3.50;;;15.00;59.10;;;;;;5074005;28;20545;-68
2023/05/09 08:51:59;;;;;;;4.60;3.60;;;15.10;58.90;;;;;;5073947;28;20790;-67
2023/05/09 08:54:28;;;;;;;2.90;2.60;;;15.10;58.20;;;;;;5074209;28;20553;-68
2023/05/09 08:56:56;;;;;;;5.83;3.30;;;15.20;58.90;;;;;;5073614;28;20585;-68
2023/05/09 08:59:24;;;;;;;4.30;3.10;;;15.30;59.30;;;;;;5073852;28;20914;-68
2023/05/09 09:01:52;;;;;;;6.53;3.47;;;15.50;59.10;;;;;;5076302;28;20462;-67
2023/05/09 09:04:19;;;;;;;5.33;3.90;;;15.50;57.90;;;;;;5077246;28;20976;-68
2023/05/09 09:06:46;;;;;;;3.57;3.20;;;15.60;57.50;;;;;;5077534;28;20537;-67
2023/05/09 09:09:15;;;;;;;4.90;3.07;;;15.70;57.10;;;;;;5077591;28;20544;-68
2023/05/09 09:11:44;;;;;;;5.47;3.20;;;15.70;56.70;;;;;;5077442;28;20813;-67
2023/05/09 09:14:13;;;;;;;4.73;2.80;;;15.70;56.10;;;;;;5077189;28;20788;-67
2023/05/09 09:16:41;;;;;;;5.63;3.83;;;15.70;56.90;;;;;;5076712;28;20535;-69
2023/05/09 09:19:12;;;;;;;3.73;3.33;;;15.80;57.30;;;;;;5077468;28;20458;-67
2023/05/09 09:21:42;;;;;;;3.50;3.10;;;15.90;56.20;;;;;;5077269;28;20534;-69
2023/05/09 09:24:12;;;;;;;3.90;3.27;;;16.00;56.00;;;;;;5077227;28;20455;-69
2023/05/09 09:26:46;;;;;;;2.70;2.50;;;16.10;55.60;;;;;;5077119;28;20466;-68
2023/05/09 09:29:13;;;;;;;5.90;3.57;;;16.20;55.00;;;;;;5077034;28;20430;-68
2023/05/09 09:31:44;;;;;;;5.63;3.67;;;16.30;55.10;;;;;;5076606;28;20541;-69
2023/05/09 09:34:13;;;;;;;4.80;2.80;;;16.30;53.40;;;;;;5076794;28;20447;-68
2023/05/09 09:36:40;;;;;;;3.53;3.23;;;16.30;52.80;;;;;;5076794;28;20489;-68
2023/05/09 09:39:08;;;;;;;4.83;2.90;;;16.40;52.50;;;;;;5076990;28;20489;-68
2023/05/09 09:41:35;;;;;;;3.50;2.73;;;16.40;51.80;;;;;;5076787;28;20457;-68
2023/05/09 09:44:08;;;;;;;3.33;3.03;;;16.50;51.30;;;;;;5076865;28;20549;-68
2023/05/09 09:46:43;;;;;;;3.40;3.10;;;16.40;51.10;;;;;;5076582;28;20907;-68
2023/05/09 09:49:10;;;;;;;4.63;2.97;;;16.50;51.90;;;;;;5076762;28;20458;-67
2023/05/09 09:51:37;;;;;;;4.60;3.37;;;16.50;51.50;;;;;;5076746;28;20458;-67
2023/05/09 09:54:07;;;;;;;3.60;2.50;;;16.60;51.30;;;;;;5076345;28;20471;-67
2023/05/09 09:56:45;;;;;;;4.77;3.23;;;16.80;51.50;;;;;;5076619;28;20880;-68
2023/05/09 09:59:15;;;;;;;4.80;3.30;;;16.90;50.80;;;;;;5076339;28;20466;-68
2023/05/09 10:01:58;;;;;;;6.87;3.80;;;16.90;49.50;;;;;;5076038;28;20534;-68
2023/05/09 10:04:28;;;;;;;3.50;2.87;;;17.00;49.00;;;;;;5074296;28;20758;-68
2023/05/09 10:06:55;;;;;;;3.30;3.00;;;17.00;48.30;;;;;;5075650;28;20449;-68
2023/05/09 10:09:23;;;;;;;5.23;2.63;;;17.00;48.90;;;;;;5075807;28;21003;-68
2023/05/09 10:11:52;;;;;;;2.90;2.67;;;17.20;48.00;;;;;;5075721;28;20541;-68
2023/05/09 10:14:22;;;;;;;2.90;2.60;;;17.20;47.90;;;;;;5076076;28;20495;-67
2023/05/09 10:16:49;;;;;;;4.83;3.37;;;17.30;48.00;;;;;;5075725;28;20488;-68
2023/05/09 10:19:19;;;;;;;6.00;2.70;;;17.40;47.20;;;;;;5075827;28;20621;-68
2023/05/09 10:21:52;;;;;;;3.63;2.80;;;17.50;47.80;;;;;;5076111;28;20458;-67
2023/05/09 10:24:27;;;;;;;3.33;2.73;;;17.60;46.10;;;;;;5075893;28;20841;-68
2023/05/09 10:27:03;;;;;;;9.33;2.80;;;17.60;45.70;;;;;;5075501;28;20450;-68
2023/05/09 10:29:35;;;;;;;2.80;2.60;;;17.60;45.00;;;;;;5075929;28;20891;-68
2023/05/09 10:32:16;;;;;;;6.53;3.40;;;17.70;44.30;;;;;;5076535;28;20465;-69
2023/05/09 10:34:51;;;;;;;4.00;3.30;;;17.70;44.10;;;;;;5076175;28;20442;-67
2023/05/09 10:37:18;;;;;;;3.23;2.93;;;17.80;42.90;;;;;;5075815;28;20552;-68
2023/05/09 10:39:46;;;;;;;3.40;2.60;;;17.90;42.10;;;;;;5075312;28;20521;-68
2023/05/09 10:42:13;;;;;;;3.87;2.63;;;18.00;42.20;;;;;;5075639;28;20773;-68
2023/05/09 10:44:42;;;;;;;6.40;2.80;;;18.10;41.60;;;;;;5076062;28;20455;-67
2023/05/09 10:47:09;;;;;;;4.23;2.87;;;18.20;41.90;;;;;;5075544;28;20541;-67
2023/05/09 10:49:36;;;;;;;4.20;2.67;;;18.20;40.70;;;;;;5075628;28;20537;-68
2023/05/09 10:52:03;;;;;;;3.60;2.67;;;18.20;39.50;;;;;;5075237;28;20462;-69
2023/05/09 10:54:32;;;;;;;4.70;2.33;;;18.20;40.00;;;;;;5075182;28;20533;-68
2023/05/09 10:56:59;;;;;;;3.40;2.73;;;18.30;39.70;;;;;;5075339;28;20488;-67
2023/05/09 10:59:34;;;;;;;2.83;2.50;;;18.30;39.60;;;;;;5075384;28;20481;-68
2023/05/09 11:02:03;;;;;;;3.60;2.60;;;18.30;38.70;;;;;;5074848;28;20493;-68
2023/05/09 11:04:31;;;;;;;6.07;2.73;;;18.30;37.60;;;;;;5074962;28;20462;-67
2023/05/09 11:06:59;;;;;;;3.03;2.73;;;18.40;38.60;;;;;;5074545;28;20558;-68
2023/05/09 11:09:34;;;;;;;3.80;3.23;;;18.40;38.20;;;;;;5074638;28;20451;-68
2023/05/09 11:12:08;;;;;;;4.13;2.93;;;18.60;39.00;;;;;;5075130;28;20511;-68
2023/05/09 11:14:41;;;;;;;3.40;2.50;;;18.80;39.30;;;;;;5074845;28;20438;-67
2023/05/09 11:17:11;;;;;;;5.43;4.00;;;19.40;38.80;;;;;;5074557;28;20517;-67
2023/05/09 11:19:57;;;;;;;4.10;2.67;;;20.70;37.10;;;;;;5074403;28;20454;-70
2023/05/09 11:22:26;;;;;;;4.30;2.83;;;22.10;34.60;;;;;;5074790;28;20446;-67
2023/05/09 11:25:00;;;;;;;4.83;2.80;;;23.80;31.70;;;;;;5073960;28;20494;-67
2023/05/09 11:27:28;;;;;;;5.57;2.70;;;25.00;28.60;;;;;;5074734;28;20443;-67
2023/05/09 11:29:57;;;;;;;3.73;2.53;;;26.10;27.30;;;;;;5074314;28;20946;-68
2023/05/09 11:32:32;;;;;;;8.00;2.90;;;27.30;25.80;;;;;;5074243;28;20541;-67
2023/05/09 11:35:09;;;;;;;2.80;2.60;;;28.50;24.40;;;;;;5074457;28;20442;-67
2023/05/09 11:37:45;;;;;;;4.33;3.10;;;29.30;20.70;;;;;;5074159;28;20497;-68
2023/05/09 11:40:13;;;;;;;3.70;2.70;;;29.90;18.80;;;;;;5074159;28;20478;-67
2023/05/09 11:42:43;;;;;;;3.10;2.90;;;30.70;17.40;;;;;;5074073;28;20890;-67
2023/05/09 11:45:11;;;;;;;12.10;2.80;;;31.20;16.00;;;;;;5074999;28;20457;-67
2023/05/09 11:47:40;;;;;;;3.43;2.83;;;31.00;15.00;;;;;;5074579;28;20541;-67
2023/05/09 11:50:09;;;;;;;5.07;2.20;;;31.30;14.80;;;;;;5074067;28;20493;-68
2023/05/09 11:52:37;;;;;;;3.20;2.90;;;31.30;13.10;;;;;;5074484;28;20980;-68
2023/05/09 11:55:06;;;;;;;5.03;2.60;;;31.10;13.20;;;;;;5074521;28;20481;-68
2023/05/09 11:57:33;;;;;;;3.53;2.57;;;31.20;13.50;;;;;;5074267;28;20482;-68
2023/05/09 12:00:03;;;;;;;3.53;2.80;;;31.10;12.90;;;;;;5074310;28;20790;-68
2023/05/09 12:02:30;;;;;;;5.37;2.67;;;31.10;14.30;;;;;;5074224;28;20473;-68
2023/05/09 12:05:07;;;;;;;5.00;2.00;;;31.40;13.00;;;;;;5074117;28;21019;-69
2023/05/09 12:07:35;;;;;;;6.67;3.50;;;32.00;13.30;;;;;;5074541;28;20823;-68
2023/05/09 12:10:05;;;;;;;3.20;2.93;;;32.40;12.60;;;;;;5074447;28;20454;-68
2023/05/09 12:12:34;;;;;;;3.73;3.10;;;32.90;12.90;;;;;;5074034;28;20454;-68
2023/05/09 12:15:04;;;;;;;2.67;2.47;;;33.70;12.70;;;;;;5074272;28;20933;-67
2023/05/09 12:17:31;;;;;;;5.03;2.93;;;34.20;11.70;;;;;;5074504;28;20478;-68
2023/05/09 12:20:02;;;;;;;2.57;2.37;;;34.60;11.50;;;;;;5074400;28;20558;-68
2023/05/09 12:22:30;;;;;;;4.17;2.80;;;35.10;10.20;;;;;;5074337;28;20515;-68
2023/05/09 12:24:58;;;;;;;2.87;2.57;;;34.60;9.20;;;;;;5074459;28;20471;-68
2023/05/09 12:27:27;;;;;;;7.70;6.73;;;34.80;10.10;;;;;;5074048;28;20454;-69
2023/05/09 12:29:54;;;;;;;3.10;2.80;;;34.90;10.00;;;;;;5074460;28;20462;-69
2023/05/09 12:32:21;;;;;;;2.57;2.37;;;35.00;9.50;;;;;;5074292;28;20460;-68
2023/05/09 12:34:48;;;;;;;3.03;2.50;;;35.40;9.10;;;;;;5074505;28;20454;-67
2023/05/09 12:37:18;;;;;;;2.73;2.30;;;35.80;9.10;;;;;;5077664;28;20954;-68
2023/05/09 12:39:59;;;;;;;2.60;2.40;;;36.00;9.10;;;;;;5077514;28;20753;-68
2023/05/09 12:42:27;;;;;;;3.20;2.37;;;36.40;9.00;;;;;;5077691;28;20962;-69
2023/05/09 12:44:54;;;;;;;3.50;2.93;;;36.80;8.50;;;;;;5077487;28;20489;-69
2023/05/09 12:47:21;;;;;;;4.27;2.80;;;36.80;8.00;;;;;;5077554;28;20782;-67
2023/05/09 12:49:49;;;;;;;3.40;2.80;;;36.80;7.40;;;;;;5077461;28;20458;-68
2023/05/09 12:52:20;;;;;;;5.40;2.73;;;36.70;7.20;;;;;;5077166;28;20940;-68
2023/05/09 12:54:47;;;;;;;4.50;2.73;;;36.80;7.30;;;;;;5077405;28;20453;-68